createdAt,value
2022-08-05T00:01:28.594Z,100975.94
2022-08-05T00:03:57.219Z,100975.34
2022-08-05T00:06:32.137Z,100986.13
2022-08-05T00:09:00.863Z,100990.34
2022-08-05T00:11:34.469Z,100985.31
2022-08-05T00:14:02.461Z,100991.69
2022-08-05T00:16:53.106Z,101000.69
2022-08-05T00:19:25.071Z,100995.81
2022-08-05T00:22:00.969Z,101004.97
2022-08-05T00:24:30.901Z,101015.16
2022-08-05T00:26:58.819Z,101017.84
2022-08-05T00:29:26.156Z,101012.75
2022-08-05T00:32:12.362Z,100984.44
2022-08-05T00:35:04.389Z,100997.66
2022-08-05T00:37:50.794Z,100995.41
2022-08-05T00:40:26.918Z,101005.84
2022-08-05T00:42:57.038Z,100991.22
2022-08-05T00:45:38.104Z,100996.31
2022-08-05T00:48:09.604Z,100990.88
2022-08-05T00:50:37.890Z,100994.53
2022-08-05T00:53:09.910Z,101003.66
2022-08-05T00:55:51.534Z,101014.16
2022-08-05T00:58:19.134Z,101016.84
2022-08-05T01:00:50.188Z,101023.81
2022-08-05T01:03:22.507Z,101017.72
2022-08-05T01:05:51.368Z,101026.63
2022-08-05T01:08:39.225Z,101030.13
2022-08-05T01:11:33.454Z,101020.03
2022-08-05T01:14:04.143Z,101023.03
2022-08-05T01:16:38.360Z,101033.34
2022-08-05T01:19:56.886Z,101040.25
2022-08-05T01:22:28.063Z,101021.75
2022-08-05T01:25:21.541Z,101016.09
2022-08-05T01:28:25.181Z,101028.50
2022-08-05T01:30:56.957Z,101031.09
2022-08-05T01:33:35.553Z,101019.59
2022-08-05T01:36:12.833Z,101007.97
2022-08-05T01:38:45.347Z,101000.84
2022-08-05T01:41:14.868Z,100979.94
2022-08-05T01:43:42.163Z,100967.81
2022-08-05T01:46:16.316Z,100952.75
2022-08-05T01:48:58.693Z,100947.38
2022-08-05T01:51:29.994Z,100954.00
2022-08-05T01:53:59.561Z,100954.16
2022-08-05T01:58:10.299Z,100938.53
2022-08-05T01:59:22.521Z,100939.91
2022-08-05T02:01:54.708Z,100914.75
2022-08-05T02:04:24.291Z,100890.53
2022-08-05T02:06:52.678Z,100888.81
2022-08-05T02:09:20.673Z,100889.22
2022-08-05T02:12:12.498Z,100882.53
2022-08-05T02:14:52.623Z,100888.13
2022-08-05T02:18:28.745Z,100902.50
2022-08-05T02:20:20.682Z,100896.94
2022-08-05T02:22:56.731Z,100890.19
2022-08-05T02:25:33.289Z,100882.44
2022-08-05T02:28:02.403Z,100878.47
2022-08-05T02:30:56.719Z,100863.44
2022-08-05T02:33:35.762Z,100843.25
2022-08-05T02:36:09.660Z,100852.69
2022-08-05T02:38:43.666Z,100858.97
2022-08-05T02:41:21.298Z,100871.72
2022-08-05T02:44:02.694Z,100885.22
2022-08-05T02:46:53.231Z,100909.56
2022-08-05T02:49:36.831Z,100917.03
2022-08-05T02:52:07.715Z,100961.34
2022-08-05T02:54:37.419Z,101010.91
2022-08-05T02:58:10.383Z,101033.03
2022-08-05T02:59:59.378Z,100982.53
2022-08-05T03:02:31.723Z,100957.19
2022-08-05T03:04:59.822Z,100945.53
2022-08-05T03:08:01.008Z,100912.38
2022-08-05T03:10:15.897Z,100900.19
2022-08-05T03:12:51.736Z,100908.66
2022-08-05T03:15:20.117Z,100914.88
2022-08-05T03:17:46.736Z,100917.81
2022-08-05T03:20:13.963Z,100924.63
2022-08-05T03:22:44.174Z,100914.75
2022-08-05T03:25:33.788Z,100907.78
2022-08-05T03:28:08.452Z,100910.91
2022-08-05T03:30:36.797Z,100911.84
2022-08-05T03:33:07.219Z,100900.53
2022-08-05T03:35:41.012Z,100921.28
2022-08-05T03:38:11.242Z,100932.91
2022-08-05T03:40:47.462Z,100931.75
2022-08-05T03:44:09.978Z,100939.84
2022-08-05T03:46:04.642Z,100944.69
2022-08-05T03:48:35.654Z,100956.00
2022-08-05T03:52:37.709Z,100951.53
2022-08-05T03:55:50.508Z,100949.72
2022-08-05T03:56:47.790Z,100936.72
2022-08-05T03:59:47.663Z,100933.44
2022-08-05T04:02:37.506Z,100923.44
2022-08-05T04:05:09.576Z,100917.91
2022-08-05T04:07:57.097Z,100928.13
2022-08-05T04:10:27.893Z,100928.88
2022-08-05T04:12:58.774Z,100930.44
2022-08-05T04:15:27.995Z,100930.56
2022-08-05T04:18:06.816Z,100939.13
2022-08-05T04:20:34.836Z,100934.53
2022-08-05T04:23:01.722Z,100921.66
2022-08-05T04:25:56.789Z,100923.56
2022-08-05T04:28:15.150Z,100936.47
2022-08-05T04:30:44.624Z,100937.44
2022-08-05T04:33:12.591Z,100946.84
2022-08-05T04:36:15.581Z,100936.22
2022-08-05T04:38:40.023Z,100952.94
2022-08-05T04:44:02.171Z,100952.59
2022-08-05T04:46:37.099Z,100956.44
2022-08-05T04:49:12.364Z,100959.72
2022-08-05T04:51:42.939Z,100969.69
2022-08-05T04:54:10.342Z,100979.31
2022-08-05T04:56:39.180Z,100990.50
2022-08-05T04:59:22.373Z,100985.28
2022-08-05T05:02:34.889Z,100993.69
2022-08-05T05:04:47.776Z,100990.22
2022-08-05T05:07:17.735Z,101016.47
2022-08-05T05:09:45.635Z,101011.72
2022-08-05T05:12:12.333Z,101030.97
2022-08-05T05:14:49.278Z,101027.59
2022-08-05T05:17:23.358Z,101038.47
2022-08-05T05:19:54.194Z,101034.59
2022-08-05T05:22:24.239Z,101014.09
2022-08-05T05:24:57.012Z,101011.69
2022-08-05T05:27:45.041Z,101013.22
2022-08-05T05:30:29.123Z,101010.56
2022-08-05T05:33:00.710Z,101011.06
2022-08-05T05:35:34.169Z,101004.81
2022-08-05T05:38:09.471Z,101016.16
2022-08-05T05:40:48.042Z,101018.19
2022-08-05T05:43:28.144Z,101017.09
2022-08-05T05:46:03.832Z,101016.63
2022-08-05T05:48:34.634Z,101010.56
2022-08-05T05:51:15.035Z,101025.22
2022-08-05T05:53:54.026Z,101029.19
2022-08-05T05:56:26.154Z,101014.94
2022-08-05T05:59:03.188Z,101014.63
2022-08-05T06:01:37.551Z,101017.66
2022-08-05T06:04:11.938Z,101017.88
2022-08-05T06:06:47.689Z,101025.78
2022-08-05T06:09:24.757Z,101027.91
2022-08-05T06:12:01.491Z,101024.94
2022-08-05T06:14:30.733Z,101040.72
2022-08-05T06:16:58.422Z,101040.38
2022-08-05T06:19:34.811Z,101041.47
2022-08-05T06:22:07.210Z,101046.47
2022-08-05T06:24:35.010Z,101037.50
2022-08-05T06:27:03.925Z,101041.09
2022-08-05T06:29:49.556Z,101039.34
2022-08-05T06:32:25.493Z,101027.16
2022-08-05T06:34:56.187Z,101020.63
2022-08-05T06:37:58.159Z,101024.25
2022-08-05T06:40:18.225Z,101038.72
2022-08-05T06:42:48.594Z,101047.81
2022-08-05T06:45:20.715Z,101043.78
2022-08-05T06:48:36.928Z,101044.94
2022-08-05T06:50:35.746Z,101030.94
2022-08-05T06:53:11.251Z,101020.25
2022-08-05T06:55:38.576Z,101032.88
2022-08-05T06:58:19.989Z,101019.41
2022-08-05T07:01:00.298Z,101030.94
2022-08-05T07:03:32.336Z,101025.91
2022-08-05T07:06:05.992Z,101033.56
2022-08-05T07:08:47.742Z,101054.75
2022-08-05T07:11:15.967Z,101059.25
2022-08-05T07:14:02.402Z,101065.84
2022-08-05T07:17:56.227Z,101058.66
2022-08-05T07:22:28.291Z,101048.38
2022-08-05T07:25:22.594Z,101039.41
2022-08-05T07:27:57.949Z,101045.03
2022-08-05T07:30:38.912Z,101033.13
2022-08-05T07:33:15.715Z,101043.34
2022-08-05T07:36:03.736Z,101031.94
2022-08-05T07:38:35.373Z,101032.53
2022-08-05T07:42:07.807Z,101038.66
2022-08-05T07:44:18.766Z,101048.72
2022-08-05T07:46:48.650Z,101046.09
2022-08-05T07:49:18.175Z,101048.56
2022-08-05T07:51:53.441Z,101044.44
2022-08-05T07:54:31.190Z,101044.44
2022-08-05T07:57:22.640Z,101037.69
2022-08-05T07:59:52.002Z,101034.72
2022-08-05T08:02:26.372Z,101041.91
2022-08-05T08:04:54.477Z,101038.28
2022-08-05T08:07:23.085Z,101047.59
2022-08-05T08:09:53.115Z,101052.66
2022-08-05T08:12:37.283Z,101064.00
2022-08-05T08:15:15.178Z,101069.19
2022-08-05T08:17:46.295Z,101056.34
2022-08-05T08:21:00.206Z,101048.97
2022-08-05T08:24:03.269Z,101069.81
2022-08-05T08:25:59.087Z,101063.69
2022-08-05T08:28:36.103Z,101056.72
2022-08-05T08:31:09.592Z,101059.47
2022-08-05T08:33:41.848Z,101056.56
2022-08-05T08:36:37.625Z,101049.63
2022-08-05T08:38:57.455Z,101044.59
2022-08-05T08:41:51.382Z,101050.06
2022-08-05T08:45:18.256Z,101053.38
2022-08-05T08:47:46.811Z,101054.41
2022-08-05T08:50:14.291Z,101059.66
2022-08-05T08:52:51.651Z,101057.22
2022-08-05T08:56:01.979Z,101057.94
2022-08-05T08:58:07.292Z,101065.03
2022-08-05T09:00:36.818Z,101074.81
2022-08-05T09:03:06.724Z,101074.16
2022-08-05T09:05:38.826Z,101074.28
2022-08-05T09:08:20.356Z,101073.94
2022-08-05T09:10:54.321Z,101085.38
2022-08-05T09:13:21.392Z,101093.38
2022-08-05T09:15:51.309Z,101096.31
2022-08-05T09:18:18.482Z,101106.59
2022-08-05T09:20:47.185Z,101103.28
2022-08-05T09:23:18.967Z,101115.63
2022-08-05T09:26:02.229Z,101115.53
2022-08-05T09:28:33.387Z,101109.16
2022-08-05T09:31:23.330Z,101111.59
2022-08-05T09:34:07.389Z,101115.09
2022-08-05T09:36:56.412Z,101119.56
2022-08-05T09:39:39.495Z,101115.31
2022-08-05T09:42:23.969Z,101112.41
2022-08-05T09:44:57.217Z,101101.88
2022-08-05T09:47:49.046Z,101104.81
2022-08-05T09:50:37.781Z,101092.53
2022-08-05T09:53:05.798Z,101094.00
2022-08-05T09:55:56.818Z,101095.59
2022-08-05T09:58:23.842Z,101091.84
2022-08-05T10:00:58.434Z,101081.28
2022-08-05T10:03:25.778Z,101091.00
2022-08-05T10:06:15.597Z,101087.97
2022-08-05T10:08:43.027Z,101097.81
2022-08-05T10:11:17.612Z,101090.56
2022-08-05T10:13:48.452Z,101090.44
2022-08-05T10:16:31.016Z,101093.22
2022-08-05T10:18:59.983Z,101093.34
2022-08-05T10:21:27.602Z,101094.91
2022-08-05T10:24:06.251Z,101092.25
2022-08-05T10:26:37.676Z,101109.19
2022-08-05T10:29:23.549Z,101109.06
2022-08-05T10:33:02.199Z,101115.63
2022-08-05T10:34:40.859Z,101122.03
2022-08-05T10:37:08.335Z,101121.25
2022-08-05T10:40:04.119Z,101124.03
2022-08-05T10:42:33.911Z,101118.47
2022-08-05T10:45:02.002Z,101127.03
2022-08-05T10:48:29.751Z,101129.13
2022-08-05T10:51:03.305Z,101125.59
2022-08-05T10:53:42.639Z,101127.53
2022-08-05T10:56:25.458Z,101143.06
2022-08-05T10:58:55.716Z,101144.31
2022-08-05T11:01:55.067Z,101147.31
2022-08-05T11:04:26.247Z,101153.84
2022-08-05T11:07:04.752Z,101169.88
2022-08-05T11:09:48.835Z,101158.78
2022-08-05T11:12:45.347Z,101158.16
2022-08-05T11:15:21.989Z,101181.56
2022-08-05T11:17:59.924Z,101186.09
2022-08-05T11:20:39.168Z,101196.88
2022-08-05T11:23:33.589Z,101194.38
2022-08-05T11:26:28.858Z,101185.53
2022-08-05T11:29:06.612Z,101189.66
2022-08-05T11:31:58.825Z,101198.41
2022-08-05T11:34:51.102Z,101195.81
2022-08-05T11:38:28.625Z,101208.34
2022-08-05T11:41:34.444Z,101203.22
2022-08-05T11:44:10.810Z,101206.25
2022-08-05T11:46:58.594Z,101203.78
2022-08-05T11:49:34.034Z,101214.66
2022-08-05T11:52:01.573Z,101231.50
2022-08-05T11:54:38.184Z,101227.19
2022-08-05T11:57:25.230Z,101231.81
2022-08-05T11:59:53.241Z,101243.50
2022-08-05T12:02:31.881Z,101237.03
2022-08-05T12:05:08.248Z,101233.25
2022-08-05T12:08:09.492Z,101238.94
2022-08-05T12:10:43.178Z,101241.03
2022-08-05T12:16:15.380Z,101238.75
2022-08-05T12:18:49.593Z,101236.47
2022-08-05T12:21:26.737Z,101241.28
2022-08-05T12:24:06.984Z,101250.19
2022-08-05T12:27:01.160Z,101262.28
2022-08-05T12:29:38.815Z,101265.16
2022-08-05T12:32:07.529Z,101255.28
2022-08-05T12:34:38.410Z,101256.44
2022-08-05T12:37:26.680Z,101257.19
2022-08-05T12:40:03.626Z,101265.16
2022-08-05T12:42:37.779Z,101261.56
2022-08-05T12:45:09.428Z,101267.22
2022-08-05T12:47:37.862Z,101258.66
2022-08-05T12:50:17.322Z,101241.28
2022-08-05T12:52:59.596Z,101240.16
2022-08-05T12:55:32.951Z,101237.72
2022-08-05T12:58:51.343Z,101246.28
2022-08-05T13:02:03.140Z,101259.97
2022-08-05T13:03:42.092Z,101256.06
2022-08-05T13:06:17.280Z,101258.75
2022-08-05T13:08:52.354Z,101252.31
2022-08-05T13:12:02.352Z,101248.09
2022-08-05T13:14:24.857Z,101249.88
2022-08-05T13:17:07.037Z,101245.66
2022-08-05T13:19:52.433Z,101254.13
2022-08-05T13:22:28.522Z,101253.25
2022-08-05T13:25:00.631Z,101251.22
2022-08-05T13:27:38.892Z,101257.94
2022-08-05T13:30:35.274Z,101259.38
2022-08-05T13:32:56.400Z,101268.94
2022-08-05T13:35:31.382Z,101273.88
2022-08-05T13:38:14.554Z,101269.69
2022-08-05T13:40:55.266Z,101261.34
2022-08-05T13:43:22.466Z,101262.34
2022-08-05T13:45:49.288Z,101255.19
2022-08-05T13:48:58.484Z,101259.03
2022-08-05T13:51:09.635Z,101245.94
2022-08-05T13:53:47.819Z,101244.75
2022-08-05T13:56:19.132Z,101242.34
2022-08-05T13:58:53.456Z,101250.09
2022-08-05T14:01:25.878Z,101244.94
2022-08-05T14:04:22.128Z,101246.84
2022-08-05T14:06:58.748Z,101242.41
2022-08-05T14:09:45.954Z,101250.19
2022-08-05T14:12:17.596Z,101257.50
2022-08-05T14:14:45.234Z,101249.38
2022-08-05T14:17:16.816Z,101242.69
2022-08-05T14:19:54.579Z,101247.03
2022-08-05T14:22:24.898Z,101250.56
2022-08-05T14:24:57.182Z,101250.91
2022-08-05T14:27:23.821Z,101257.50
2022-08-05T14:29:55.570Z,101259.34
2022-08-05T14:32:26.669Z,101264.94
2022-08-05T14:34:54.710Z,101260.84
2022-08-05T14:37:45.664Z,101264.91
2022-08-05T14:40:14.190Z,101262.06
2022-08-05T14:42:43.840Z,101256.41
2022-08-05T14:45:10.760Z,101236.53
2022-08-05T14:48:03.602Z,101247.34
2022-08-05T14:50:25.223Z,101243.34
2022-08-05T14:52:57.495Z,101246.63
2022-08-05T14:55:38.648Z,101249.75
2022-08-05T14:58:12.046Z,101245.31
2022-08-05T15:00:59.150Z,101243.47
2022-08-05T15:03:33.080Z,101254.91
2022-08-05T15:06:07.783Z,101260.91
2022-08-05T15:08:59.375Z,101268.19
2022-08-05T15:11:52.283Z,101268.78
2022-08-05T15:14:34.234Z,101265.91
2022-08-05T15:17:03.759Z,101269.31
2022-08-05T15:19:31.501Z,101265.59
2022-08-05T15:22:01.036Z,101261.31
2022-08-05T15:24:28.663Z,101256.03
2022-08-05T15:26:56.079Z,101255.19
2022-08-05T15:29:30.182Z,101249.84
2022-08-05T15:32:03.277Z,101242.06
2022-08-05T15:34:33.379Z,101245.31
2022-08-05T15:37:06.156Z,101261.66
2022-08-05T15:40:59.590Z,101270.47
2022-08-05T15:42:28.651Z,101263.75
2022-08-05T15:45:07.180Z,101265.28
2022-08-05T15:47:36.765Z,101275.09
2022-08-05T15:50:07.317Z,101287.53
2022-08-05T15:52:52.724Z,101304.78
2022-08-05T15:55:25.021Z,101304.88
2022-08-05T15:58:08.911Z,101309.22
2022-08-05T16:01:03.603Z,101314.56
2022-08-05T16:03:22.255Z,101325.94
2022-08-05T16:05:52.640Z,101324.88
2022-08-05T16:08:22.426Z,101324.50
2022-08-05T16:10:50.746Z,101333.69
2022-08-05T16:13:23.347Z,101330.81
2022-08-05T16:15:51.928Z,101335.72
2022-08-05T16:18:19.263Z,101333.88
2022-08-05T16:20:46.374Z,101335.50
2022-08-05T16:23:13.227Z,101343.69
2022-08-05T16:25:40.185Z,101350.47
2022-08-05T16:28:09.819Z,101339.09
2022-08-05T16:30:37.796Z,101344.75
2022-08-05T16:33:04.589Z,101341.63
2022-08-05T16:35:32.598Z,101343.81
2022-08-05T16:38:18.439Z,101335.47
2022-08-05T16:40:55.317Z,101336.91
2022-08-05T16:43:23.763Z,101342.41
2022-08-05T16:46:06.487Z,101346.59
2022-08-05T16:48:39.182Z,101340.38
2022-08-05T16:51:09.976Z,101335.53
2022-08-05T16:54:06.230Z,101344.16
2022-08-05T16:56:29.933Z,101348.16
2022-08-05T16:58:57.832Z,101349.56
2022-08-05T17:01:24.745Z,101352.91
2022-08-05T17:03:52.008Z,101355.47
2022-08-05T17:06:19.357Z,101357.78
2022-08-05T17:08:52.854Z,101367.78
2022-08-05T17:11:25.527Z,101370.75
2022-08-05T17:14:00.412Z,101381.66
2022-08-05T17:16:36.547Z,101379.47
2022-08-05T17:19:07.737Z,101380.78
2022-08-05T17:21:37.687Z,101388.69
2022-08-05T17:24:28.461Z,101393.09
2022-08-05T17:26:57.006Z,101390.94
2022-08-05T17:29:33.313Z,101402.47
2022-08-05T17:32:01.050Z,101395.94
2022-08-05T17:34:29.853Z,101406.28
2022-08-05T17:37:00.110Z,101412.16
2022-08-05T17:39:34.252Z,101413.94
2022-08-05T17:42:18.348Z,101418.38
2022-08-05T17:44:51.120Z,101427.56
2022-08-05T17:47:23.121Z,101426.56
2022-08-05T17:50:04.036Z,101434.44
2022-08-05T17:52:52.733Z,101422.56
2022-08-05T17:55:22.403Z,101435.38
2022-08-05T17:57:50.156Z,101441.31
2022-08-05T18:00:17.508Z,101447.38
2022-08-05T18:02:47.292Z,101445.91
2022-08-05T18:05:16.770Z,101459.41
2022-08-05T18:07:44.622Z,101463.47
2022-08-05T18:10:20.308Z,101457.75
2022-08-05T18:12:48.824Z,101463.94
2022-08-05T18:15:15.469Z,101458.41
2022-08-05T18:17:58.634Z,101462.75
2022-08-05T18:20:31.517Z,101455.22
2022-08-05T18:23:11.369Z,101474.63
2022-08-05T18:25:45.380Z,101476.97
2022-08-05T18:28:16.045Z,101469.56
2022-08-05T18:30:50.750Z,101478.97
2022-08-05T18:33:22.614Z,101485.47
2022-08-05T18:36:01.117Z,101477.75
2022-08-05T18:38:36.037Z,101477.91
2022-08-05T18:41:56.462Z,101488.34
2022-08-05T18:43:54.201Z,101484.41
2022-08-05T18:46:20.922Z,101490.69
2022-08-05T18:48:51.965Z,101492.38
2022-08-05T18:52:04.972Z,101493.03
2022-08-05T18:54:31.372Z,101498.50
2022-08-05T18:57:02.461Z,101504.28
2022-08-05T18:59:42.874Z,101510.63
2022-08-05T19:02:27.857Z,101513.47
2022-08-05T19:05:02.862Z,101519.66
2022-08-05T19:07:46.331Z,101524.41
2022-08-05T19:10:14.448Z,101522.50
2022-08-05T19:12:41.474Z,101530.16
2022-08-05T19:15:25.245Z,101535.56
2022-08-05T19:18:09.074Z,101549.97
2022-08-05T19:20:41.526Z,101549.38
2022-08-05T19:24:04.047Z,101556.31
2022-08-05T19:26:01.890Z,101567.56
2022-08-05T19:28:34.739Z,101573.31
2022-08-05T19:31:05.724Z,101581.41
2022-08-05T19:33:36.839Z,101582.38
2022-08-05T19:36:09.073Z,101588.53
2022-08-05T19:38:36.286Z,101592.50
2022-08-05T19:41:07.016Z,101595.59
2022-08-05T19:44:06.729Z,101598.34
2022-08-05T19:46:29.310Z,101604.03
2022-08-05T19:49:03.588Z,101603.84
2022-08-05T19:52:08.607Z,101607.53
2022-08-05T19:54:29.568Z,101609.63
2022-08-05T19:56:59.765Z,101613.84
2022-08-05T19:59:54.949Z,101612.94
2022-08-05T20:02:17.632Z,101616.94
2022-08-05T20:04:46.065Z,101625.31
2022-08-05T20:07:15.036Z,101632.28
2022-08-05T20:09:55.152Z,101626.88
2022-08-05T20:12:24.799Z,101630.06
2022-08-05T20:14:53.330Z,101632.09
2022-08-05T20:17:23.232Z,101634.47
2022-08-05T20:19:56.915Z,101631.84
2022-08-05T20:22:27.214Z,101638.91
2022-08-05T20:24:55.498Z,101632.47
2022-08-05T20:27:27.039Z,101640.97
2022-08-05T20:29:58.210Z,101652.53
2022-08-05T20:32:27.551Z,101651.69
2022-08-05T20:34:54.609Z,101652.63
2022-08-05T20:38:06.431Z,101652.38
2022-08-05T20:40:08.900Z,101652.81
2022-08-05T20:42:35.674Z,101658.94
2022-08-05T20:45:02.889Z,101661.84
2022-08-05T20:47:31.851Z,101667.44
2022-08-05T20:50:02.056Z,101667.00
2022-08-05T20:52:29.426Z,101677.38
2022-08-05T20:55:55.623Z,101674.84
2022-08-05T20:57:44.812Z,101682.72
2022-08-05T21:00:40.325Z,101679.44
2022-08-05T21:03:06.843Z,101684.06
2022-08-05T21:05:48.279Z,101683.34
2022-08-05T21:08:21.362Z,101690.03
2022-08-05T21:10:55.078Z,101689.56
2022-08-05T21:13:26.551Z,101692.00
2022-08-05T21:16:11.971Z,101701.22
2022-08-05T21:18:38.615Z,101704.88
2022-08-05T21:21:12.094Z,101699.97
2022-08-05T21:23:39.028Z,101699.69
2022-08-05T21:26:08.358Z,101709.25
2022-08-05T21:28:47.877Z,101713.34
2022-08-05T21:31:18.878Z,101709.44
2022-08-05T21:33:47.546Z,101714.34
2022-08-05T21:36:19.117Z,101714.81
2022-08-05T21:38:54.862Z,101714.03
2022-08-05T21:41:21.613Z,101717.88
2022-08-05T21:44:01.659Z,101717.59
2022-08-05T21:46:30.546Z,101715.41
2022-08-05T21:48:57.243Z,101714.25
2022-08-05T21:52:21.652Z,101714.63
2022-08-05T21:54:13.391Z,101720.69
2022-08-05T21:56:44.735Z,101719.69
2022-08-05T21:59:24.014Z,101709.06
2022-08-05T22:01:54.443Z,101715.56
2022-08-05T22:04:25.247Z,101717.44
2022-08-05T22:06:52.700Z,101711.13
2022-08-05T22:09:21.463Z,101712.47
2022-08-05T22:11:48.731Z,101708.97
2022-08-05T22:14:35.755Z,101718.50
2022-08-05T22:17:06.648Z,101718.00
2022-08-05T22:20:01.193Z,101715.31
2022-08-05T22:22:28.233Z,101728.75
2022-08-05T22:25:27.821Z,101732.59
2022-08-05T22:28:10.474Z,101731.56
2022-08-05T22:30:55.272Z,101731.59
2022-08-05T22:33:57.913Z,101740.78
2022-08-05T22:36:15.571Z,101741.16
2022-08-05T22:38:48.276Z,101741.84
2022-08-05T22:42:10.115Z,101744.31
2022-08-05T22:45:05.559Z,101734.16
2022-08-05T22:49:07.477Z,101744.25
2022-08-05T22:55:57.199Z,101748.72
2022-08-05T23:14:44.064Z,101754.19
2022-08-05T23:24:53.722Z,101763.09
2022-08-05T23:28:06.875Z,101768.31
2022-08-05T23:38:21.554Z,101787.28
2022-08-05T23:44:45.757Z,101791.81
